Time;durP1;ratioP1;P1;durP2;ratioP2;P2;SDS_P1;SDS_P2;PMS_P1;PMS_P2;Temp;Humidity;BMP_temperature;BMP_pressure;BME280_temperature;BME280_humidity;BME280_pressure;Samples;Min_cycle;Max_cycle;Signal;HPM_P1;HPM_P2
2022/05/23 00:01:47;;;;;;;4.95;0.70;;;19.60;65.70;;;;;;5053751;28;20028;-75
2022/05/23 00:04:12;;;;;;;4.03;0.60;;;19.60;65.80;;;;;;5053422;28;20029;-75
2022/05/23 00:06:38;;;;;;;4.57;1.05;;;19.70;65.90;;;;;;5053464;28;20052;-75
2022/05/23 00:09:04;;;;;;;5.45;1.10;;;19.60;66.00;;;;;;5052843;28;20025;-75
2022/05/23 00:11:30;;;;;;;6.22;0.80;;;19.50;65.90;;;;;;5053646;28;20032;-75
2022/05/23 00:13:56;;;;;;;3.03;0.70;;;19.50;66.00;;;;;;5053292;28;20520;-75
2022/05/23 00:16:24;;;;;;;4.00;0.60;;;19.50;66.00;;;;;;5053623;28;20056;-75
2022/05/23 00:18:50;;;;;;;4.78;0.80;;;19.50;66.00;;;;;;5053199;28;20025;-75
2022/05/23 00:21:18;;;;;;;6.22;0.80;;;19.50;66.00;;;;;;5053406;28;20070;-75
2022/05/23 00:23:44;;;;;;;4.45;0.60;;;19.50;66.00;;;;;;5053221;28;20021;-75
2022/05/23 00:26:14;;;;;;;4.75;0.60;;;19.40;66.30;;;;;;5052986;28;20040;-75
2022/05/23 00:28:39;;;;;;;4.88;0.57;;;19.40;66.50;;;;;;5053102;28;20465;-75
2022/05/23 00:31:06;;;;;;;5.60;1.00;;;19.40;66.30;;;;;;5053131;28;20036;-75
2022/05/23 00:36:17;;;;;;;5.47;0.68;;;19.40;66.40;;;;;;5053232;28;20112;-75
2022/05/23 00:38:42;;;;;;;5.88;0.80;;;19.40;66.30;;;;;;5052945;28;20020;-75
2022/05/23 00:43:59;;;;;;;5.72;0.80;;;19.50;66.30;;;;;;5053009;28;20499;-75
2022/05/23 00:46:24;;;;;;;6.43;0.75;;;19.40;67.30;;;;;;5052986;28;20123;-75
2022/05/23 00:48:52;;;;;;;4.00;1.20;;;19.30;66.70;;;;;;5053009;28;20033;-75
2022/05/23 00:51:19;;;;;;;5.53;0.95;;;19.30;66.80;;;;;;5052765;28;20037;-75
2022/05/23 00:53:50;;;;;;;5.45;0.82;;;19.20;67.00;;;;;;5053107;28;20060;-75
2022/05/23 00:56:18;;;;;;;4.55;1.05;;;19.10;67.40;;;;;;5053091;28;20021;-75
2022/05/23 00:58:51;;;;;;;3.67;0.70;;;19.10;67.60;;;;;;5052992;28;20078;-75
2022/05/23 01:01:22;;;;;;;3.00;0.57;;;19.10;67.70;;;;;;5052897;28;20108;-75
2022/05/23 01:03:48;;;;;;;4.43;1.33;;;19.00;67.60;;;;;;5052874;28;20039;-75
2022/05/23 01:06:14;;;;;;;4.65;1.40;;;19.10;67.70;;;;;;5052957;28;20453;-75
2022/05/23 01:08:41;;;;;;;5.00;0.90;;;19.10;67.70;;;;;;5052939;28;20036;-75
2022/05/23 01:11:07;;;;;;;5.53;1.00;;;19.10;67.90;;;;;;5052970;28;20036;-75
2022/05/23 01:13:34;;;;;;;7.10;1.25;;;18.90;68.30;;;;;;5052948;28;20048;-75
2022/05/23 01:16:00;;;;;;;3.08;0.73;;;18.80;68.40;;;;;;5053162;28;20025;-75
2022/05/23 01:18:25;;;;;;;4.25;1.00;;;18.90;68.40;;;;;;5052754;28;20021;-75
2022/05/23 01:21:03;;;;;;;4.60;0.75;;;18.90;68.40;;;;;;5052603;28;20461;-75
2022/05/23 01:23:46;;;;;;;4.22;0.95;;;18.90;68.40;;;;;;5056442;28;20469;-75
2022/05/23 01:26:11;;;;;;;8.07;0.80;;;18.90;68.60;;;;;;5056361;28;20041;-75
2022/05/23 01:28:38;;;;;;;3.92;0.50;;;18.90;68.70;;;;;;5056312;28;20028;-75
2022/05/23 01:31:09;;;;;;;3.47;0.60;;;18.90;68.70;;;;;;5056565;28;20392;-75
2022/05/23 01:33:35;;;;;;;4.30;0.95;;;19.00;68.50;;;;;;5056344;28;20100;-75
2022/05/23 01:36:01;;;;;;;4.43;0.77;;;19.10;68.40;;;;;;5056245;28;20472;-75
2022/05/23 01:38:28;;;;;;;5.25;1.02;;;19.10;68.10;;;;;;5056313;28;20021;-75
2022/05/23 01:40:57;;;;;;;3.45;1.00;;;19.20;67.90;;;;;;5056184;28;20025;-75
2022/05/23 01:43:24;;;;;;;6.55;0.90;;;19.20;68.00;;;;;;5055999;28;20017;-75
2022/05/23 01:45:51;;;;;;;4.40;1.10;;;19.10;68.10;;;;;;5055954;28;20537;-75
2022/05/23 01:48:17;;;;;;;4.60;0.90;;;19.10;68.30;;;;;;5055855;28;20118;-75
2022/05/23 01:50:42;;;;;;;3.05;0.82;;;19.10;68.40;;;;;;5056099;28;20028;-75
2022/05/23 01:53:08;;;;;;;4.00;1.00;;;19.10;68.30;;;;;;5056144;28;20074;-75
2022/05/23 01:55:35;;;;;;;5.00;0.80;;;19.10;68.30;;;;;;5055762;28;20033;-75
2022/05/23 01:58:00;;;;;;;6.88;1.10;;;19.10;68.50;;;;;;5056050;28;20013;-75
2022/05/23 02:03:10;;;;;;;3.85;0.90;;;19.00;68.70;;;;;;5055580;28;20495;-75
2022/05/23 02:05:36;;;;;;;3.97;0.90;;;19.00;68.80;;;;;;5055506;28;20025;-75
2022/05/23 02:08:02;;;;;;;5.72;0.95;;;19.00;68.90;;;;;;5055356;28;20029;-75
2022/05/23 02:10:29;;;;;;;3.33;0.70;;;19.00;68.90;;;;;;5055503;28;20096;-75
2022/05/23 02:12:56;;;;;;;5.10;0.77;;;19.00;68.80;;;;;;5055768;28;20033;-75
2022/05/23 02:15:22;;;;;;;3.70;1.00;;;19.10;69.00;;;;;;5055964;28;20049;-75
2022/05/23 02:17:47;;;;;;;4.22;0.90;;;19.10;69.00;;;;;;5055408;28;20448;-75
2022/05/23 02:20:14;;;;;;;4.53;0.88;;;19.10;69.20;;;;;;5055282;28;20109;-75
2022/05/23 02:22:40;;;;;;;5.85;1.05;;;19.10;69.10;;;;;;5055510;28;20048;-75
2022/05/23 02:25:07;;;;;;;5.32;1.00;;;19.10;69.30;;;;;;5055577;28;20052;-76
2022/05/23 02:27:34;;;;;;;2.45;0.85;;;19.00;69.50;;;;;;5055355;28;20036;-75
2022/05/23 02:30:00;;;;;;;2.72;0.63;;;19.00;69.50;;;;;;5055077;28;20025;-75
2022/05/23 02:32:25;;;;;;;3.33;1.27;;;19.10;69.50;;;;;;5055016;28;20032;-75
2022/05/23 02:34:51;;;;;;;3.03;0.90;;;19.20;69.40;;;;;;5055078;28;20108;-75
2022/05/23 02:37:17;;;;;;;3.70;0.68;;;19.20;69.40;;;;;;5055347;28;20027;-75
2022/05/23 02:39:42;;;;;;;3.67;0.70;;;19.10;69.40;;;;;;5055228;28;20029;-75
2022/05/23 02:42:09;;;;;;;3.78;1.00;;;19.20;69.60;;;;;;5055008;28;20068;-75
2022/05/23 02:44:35;;;;;;;3.67;1.10;;;19.20;69.40;;;;;;5054914;28;20054;-75
2022/05/23 02:47:01;;;;;;;3.83;0.70;;;19.30;70.00;;;;;;5054583;28;20053;-75
2022/05/23 02:49:27;;;;;;;3.60;1.00;;;19.30;69.20;;;;;;5055100;28;20017;-75
2022/05/23 02:51:53;;;;;;;4.38;1.00;;;19.20;69.20;;;;;;5054829;28;20099;-75
2022/05/23 02:54:19;;;;;;;4.15;0.75;;;19.20;69.60;;;;;;5054979;28;20104;-75
2022/05/23 02:56:45;;;;;;;3.45;1.08;;;19.20;69.60;;;;;;5055113;28;20053;-75
2022/05/23 02:59:11;;;;;;;5.35;1.20;;;19.20;69.60;;;;;;5054940;28;20067;-75
2022/05/23 03:04:22;;;;;;;3.95;1.00;;;19.00;69.90;;;;;;5023570;28;20025;-75
2022/05/23 03:06:48;;;;;;;6.88;1.25;;;19.10;70.10;;;;;;5054501;28;20056;-75
2022/05/23 03:09:13;;;;;;;4.18;1.20;;;19.10;70.20;;;;;;5054399;28;20021;-75
2022/05/23 03:11:39;;;;;;;2.72;1.15;;;18.90;70.40;;;;;;5054634;28;20052;-75
2022/05/23 03:14:05;;;;;;;3.85;1.00;;;18.90;70.60;;;;;;5054519;28;20388;-75
2022/05/23 03:16:30;;;;;;;4.78;1.17;;;18.90;70.70;;;;;;5054235;28;20028;-75
2022/05/23 03:18:56;;;;;;;5.78;1.35;;;19.00;70.60;;;;;;5054294;28;20465;-75
2022/05/23 03:26:58;;;;;;;6.57;1.60;;;19.00;70.70;;;;;;5054048;28;20412;-75
2022/05/23 03:29:24;;;;;;;3.15;0.73;;;19.00;70.70;;;;;;5054411;28;20025;-75
2022/05/23 03:31:49;;;;;;;4.85;1.50;;;19.00;70.70;;;;;;5054264;28;20086;-76
2022/05/23 03:34:15;;;;;;;4.00;1.20;;;19.00;70.70;;;;;;5053760;28;20030;-75
2022/05/23 03:36:41;;;;;;;6.45;1.75;;;19.00;70.90;;;;;;5054130;28;20029;-75
2022/05/23 03:39:06;;;;;;;3.97;1.42;;;18.90;70.90;;;;;;5053836;28;20017;-75
2022/05/23 03:41:32;;;;;;;4.35;1.33;;;18.80;71.20;;;;;;5053884;28;20047;-75
2022/05/23 03:43:57;;;;;;;4.88;1.25;;;18.70;72.20;;;;;;5053215;28;20162;-75
2022/05/23 03:46:24;;;;;;;5.22;1.83;;;18.60;71.70;;;;;;5053169;28;20025;-74
2022/05/23 03:48:49;;;;;;;5.35;1.67;;;18.70;71.90;;;;;;5054055;28;20029;-75
2022/05/23 03:51:15;;;;;;;5.65;1.27;;;18.60;72.00;;;;;;5053629;28;20096;-75
2022/05/23 03:53:41;;;;;;;6.10;1.60;;;18.60;72.30;;;;;;5053640;28;20087;-75
2022/05/23 03:56:07;;;;;;;3.92;1.10;;;18.50;72.90;;;;;;5053339;28;20028;-75
2022/05/23 03:58:33;;;;;;;5.47;1.25;;;18.60;72.80;;;;;;5053556;28;20048;-75
2022/05/23 04:01:11;;;;;;;4.75;1.33;;;18.50;72.70;;;;;;5053355;28;20435;-75
2022/05/23 04:03:37;;;;;;;5.22;1.55;;;18.60;72.80;;;;;;5053708;28;20454;-74
2022/05/23 04:06:03;;;;;;;6.30;1.92;;;18.60;72.80;;;;;;5053424;28;20033;-74
2022/05/23 04:08:30;;;;;;;6.53;1.67;;;18.60;73.00;;;;;;5053384;28;20079;-74
2022/05/23 04:10:56;;;;;;;4.93;1.65;;;18.50;73.20;;;;;;5053948;28;20104;-74
2022/05/23 04:13:22;;;;;;;5.00;1.63;;;18.40;73.50;;;;;;5053215;28;20045;-75
2022/05/23 04:15:49;;;;;;;5.00;1.65;;;18.40;73.70;;;;;;5053018;28;20024;-74
2022/05/23 04:18:15;;;;;;;5.00;1.85;;;18.50;73.70;;;;;;5053368;28;20031;-74
2022/05/23 04:20:41;;;;;;;7.65;1.77;;;18.50;73.70;;;;;;5053411;28;20100;-74
2022/05/23 04:23:09;;;;;;;7.05;1.90;;;18.60;73.70;;;;;;5053114;28;20432;-74
2022/05/23 04:25:42;;;;;;;4.15;1.55;;;18.50;73.70;;;;;;5053145;28;20365;-74
2022/05/23 04:28:09;;;;;;;5.18;1.35;;;18.60;73.90;;;;;;5053166;28;20075;-75
2022/05/23 04:30:35;;;;;;;4.60;1.50;;;18.60;73.70;;;;;;5053053;28;20025;-74
2022/05/23 04:35:46;;;;;;;4.90;1.95;;;18.70;73.50;;;;;;5053220;28;20032;-74
2022/05/23 04:38:12;;;;;;;5.68;1.88;;;18.70;73.70;;;;;;5052872;28;20400;-74
2022/05/23 04:40:38;;;;;;;5.43;1.65;;;18.70;73.70;;;;;;5053265;28;20057;-74
2022/05/23 04:43:04;;;;;;;7.22;2.00;;;18.70;73.80;;;;;;5052815;28;20032;-74
2022/05/23 04:45:30;;;;;;;7.50;1.60;;;18.70;73.90;;;;;;5052820;28;20114;-74
2022/05/23 04:50:40;;;;;;;5.88;1.88;;;18.70;74.10;;;;;;5052808;28;20040;-74
2022/05/23 04:53:06;;;;;;;4.82;1.80;;;18.70;74.10;;;;;;5052996;28;20025;-74
2022/05/23 04:55:33;;;;;;;4.47;1.90;;;18.70;74.20;;;;;;5053045;28;20025;-74
2022/05/23 04:57:59;;;;;;;5.13;1.90;;;18.70;74.30;;;;;;5056515;28;20075;-74
2022/05/23 05:00:26;;;;;;;6.95;2.40;;;18.80;74.30;;;;;;5057006;28;20025;-74
2022/05/23 05:02:52;;;;;;;4.75;2.30;;;18.70;74.50;;;;;;5056949;28;20104;-74
2022/05/23 05:05:19;;;;;;;6.65;2.17;;;18.70;74.60;;;;;;5056789;28;20056;-74
2022/05/23 05:07:45;;;;;;;7.97;2.28;;;18.70;75.00;;;;;;5056660;28;20064;-74
2022/05/23 05:10:11;;;;;;;5.22;2.28;;;18.70;74.90;;;;;;5056571;28;20021;-74
2022/05/23 05:12:36;;;;;;;7.30;2.55;;;18.70;75.20;;;;;;5056818;28;20029;-74
2022/05/23 05:15:03;;;;;;;5.35;2.40;;;18.70;75.30;;;;;;5056428;28;20078;-75
2022/05/23 05:17:29;;;;;;;7.13;3.00;;;18.70;75.40;;;;;;5056438;28;20036;-74
2022/05/23 05:19:54;;;;;;;5.93;2.63;;;18.70;75.30;;;;;;5056313;28;20017;-74
2022/05/23 05:22:20;;;;;;;7.85;2.85;;;18.60;75.70;;;;;;5056576;28;20055;-75
2022/05/23 05:24:46;;;;;;;8.63;3.05;;;18.60;76.00;;;;;;5056338;28;20021;-75
2022/05/23 05:27:12;;;;;;;5.30;2.70;;;18.40;76.40;;;;;;5056445;28;20037;-74
2022/05/23 05:29:38;;;;;;;5.03;2.83;;;18.40;76.70;;;;;;5056238;28;20086;-74
2022/05/23 05:32:14;;;;;;;4.47;2.67;;;18.50;76.60;;;;;;5056295;28;20512;-74
2022/05/23 05:34:48;;;;;;;8.55;3.50;;;18.50;76.50;;;;;;5056404;28;20036;-74
2022/05/23 05:37:19;;;;;;;4.68;2.72;;;18.60;76.50;;;;;;5056112;28;20048;-74
2022/05/23 05:39:46;;;;;;;7.45;3.15;;;18.50;76.50;;;;;;5055949;28;20484;-74
2022/05/23 05:42:26;;;;;;;6.68;3.08;;;18.70;76.50;;;;;;5056343;28;20036;-74
2022/05/23 05:45:01;;;;;;;5.82;3.38;;;18.70;76.50;;;;;;5056106;28;20037;-74
2022/05/23 05:47:29;;;;;;;4.93;2.38;;;18.70;76.40;;;;;;5055850;28;20049;-74
2022/05/23 05:50:00;;;;;;;7.95;3.60;;;18.80;76.40;;;;;;5055607;28;20052;-74
2022/05/23 05:52:29;;;;;;;6.68;3.20;;;18.80;76.40;;;;;;5056003;28;20047;-74
2022/05/23 05:54:55;;;;;;;8.15;3.22;;;18.90;76.70;;;;;;5055679;28;20035;-74
2022/05/23 05:57:22;;;;;;;7.93;3.53;;;18.90;76.60;;;;;;5055847;28;20025;-74
2022/05/23 05:59:49;;;;;;;10.32;3.58;;;18.90;76.80;;;;;;5055766;28;20059;-74
2022/05/23 06:02:15;;;;;;;6.10;3.70;;;18.90;77.60;;;;;;5055709;28;20029;-75
2022/05/23 06:04:41;;;;;;;7.07;3.35;;;18.90;77.50;;;;;;5055657;28;20031;-75
2022/05/23 06:12:35;;;;;;;10.25;4.07;;;19.10;77.20;;;;;;5055349;28;20075;-75
2022/05/23 06:15:01;;;;;;;6.88;3.83;;;19.00;77.30;;;;;;5055321;28;20021;-74
2022/05/23 06:17:26;;;;;;;7.05;3.75;;;19.00;77.30;;;;;;5055356;28;20044;-74
2022/05/23 06:19:52;;;;;;;6.43;4.00;;;19.00;77.10;;;;;;5054848;28;20052;-74
2022/05/23 06:22:18;;;;;;;9.15;4.35;;;19.00;77.70;;;;;;5055215;28;20116;-74
2022/05/23 06:24:49;;;;;;;8.68;3.92;;;19.00;78.40;;;;;;5055121;28;20025;-75
2022/05/23 06:27:15;;;;;;;7.75;3.67;;;19.00;78.30;;;;;;5054944;28;20025;-74
2022/05/23 06:29:40;;;;;;;5.85;3.20;;;19.10;78.10;;;;;;5055155;28;20078;-75
2022/05/23 06:32:06;;;;;;;7.65;3.92;;;19.10;78.00;;;;;;5055090;28;20070;-74
2022/05/23 06:34:32;;;;;;;8.07;3.60;;;19.20;77.70;;;;;;5055164;28;20029;-74
2022/05/23 06:36:59;;;;;;;9.82;4.10;;;19.30;77.50;;;;;;5055087;28;20021;-74
2022/05/23 06:39:26;;;;;;;8.52;4.38;;;19.30;77.10;;;;;;5055113;28;20384;-74
2022/05/23 06:41:51;;;;;;;9.50;3.78;;;19.40;77.40;;;;;;5055235;28;20035;-74
2022/05/23 06:44:17;;;;;;;6.95;3.90;;;19.50;77.30;;;;;;5054972;28;20021;-74
2022/05/23 06:46:43;;;;;;;5.93;3.67;;;19.50;77.20;;;;;;5054820;28;20049;-74
2022/05/23 06:49:08;;;;;;;9.20;3.80;;;19.60;77.50;;;;;;5055069;28;20058;-74
2022/05/23 06:51:35;;;;;;;7.72;3.80;;;19.60;77.40;;;;;;5054575;28;20025;-74
2022/05/23 06:54:01;;;;;;;8.20;4.35;;;19.60;77.60;;;;;;5055088;28;20033;-74
2022/05/23 06:56:28;;;;;;;8.23;4.13;;;19.70;77.50;;;;;;5054751;28;20025;-74
2022/05/23 06:58:54;;;;;;;9.63;4.35;;;19.70;77.50;;;;;;5054835;28;20037;-74
2022/05/23 07:01:20;;;;;;;10.05;4.50;;;19.70;78.00;;;;;;5054373;28;20392;-74
2022/05/23 07:03:46;;;;;;;6.50;3.95;;;19.70;78.60;;;;;;5054569;28;20025;-74
2022/05/23 07:14:26;;;;;;;10.13;4.57;;;20.10;77.60;;;;;;5054361;28;20116;-74
2022/05/23 07:16:53;;;;;;;5.68;3.97;;;20.20;77.50;;;;;;5054611;28;20385;-74
2022/05/23 07:19:19;;;;;;;10.55;4.18;;;20.20;76.10;;;;;;5053500;28;20192;-74
2022/05/23 07:21:44;;;;;;;12.30;4.75;;;20.30;76.50;;;;;;5054263;28;20049;-74
2022/05/23 07:24:10;;;;;;;10.85;4.32;;;20.40;77.10;;;;;;5054340;28;20053;-74
2022/05/23 07:26:37;;;;;;;8.60;3.65;;;20.50;76.60;;;;;;5054208;28;20079;-74
2022/05/23 07:29:03;;;;;;;6.40;3.70;;;20.50;76.30;;;;;;5054051;28;20102;-75
2022/05/23 07:31:29;;;;;;;7.90;3.80;;;20.60;76.90;;;;;;5053789;28;20431;-74
2022/05/23 07:33:55;;;;;;;12.40;3.58;;;20.70;77.10;;;;;;5054287;28;20017;-74
2022/05/23 07:36:21;;;;;;;8.45;3.42;;;20.80;77.90;;;;;;5054300;28;20029;-74
2022/05/23 07:38:47;;;;;;;12.00;3.78;;;21.00;77.20;;;;;;5053872;28;20018;-74
2022/05/23 07:41:13;;;;;;;6.13;3.22;;;21.10;75.40;;;;;;5054028;28;20021;-74
2022/05/23 07:43:41;;;;;;;8.65;3.17;;;21.00;74.50;;;;;;5053989;28;20032;-75
2022/05/23 07:46:12;;;;;;;7.97;3.33;;;21.00;74.60;;;;;;5053406;28;20028;-74
2022/05/23 07:48:46;;;;;;;6.30;2.47;;;21.00;74.20;;;;;;5053831;28;20043;-74
2022/05/23 07:51:13;;;;;;;7.13;2.95;;;21.00;75.70;;;;;;5053850;28;20106;-74
2022/05/23 08:01:52;;;;;;;6.60;2.75;;;21.00;75.20;;;;;;5053882;28;20051;-74
2022/05/23 08:04:19;;;;;;;7.43;3.17;;;20.90;74.40;;;;;;5053861;28;20037;-74
2022/05/23 08:06:45;;;;;;;5.80;2.70;;;20.80;73.90;;;;;;5053104;28;20041;-74
2022/05/23 08:09:11;;;;;;;8.15;3.10;;;20.90;74.30;;;;;;5053673;28;20025;-74
2022/05/23 08:11:44;;;;;;;6.50;2.97;;;21.00;75.00;;;;;;5053199;28;20029;-74
2022/05/23 08:14:10;;;;;;;8.48;3.40;;;21.00;75.00;;;;;;5053574;28;20052;-74
2022/05/23 08:16:36;;;;;;;7.78;2.83;;;20.90;73.60;;;;;;5053519;28;20032;-74
2022/05/23 08:19:06;;;;;;;11.13;2.75;;;21.00;73.90;;;;;;5053095;28;20468;-74
2022/05/23 08:21:33;;;;;;;9.15;3.10;;;21.00;75.10;;;;;;5053529;28;20037;-74
2022/05/23 08:23:59;;;;;;;8.20;3.28;;;21.20;75.70;;;;;;5052796;28;20083;-74
2022/05/23 08:26:27;;;;;;;6.82;3.53;;;21.30;73.80;;;;;;5053230;28;20112;-74
2022/05/23 08:28:53;;;;;;;7.50;3.20;;;21.40;73.30;;;;;;5053450;28;20021;-74
2022/05/23 08:31:19;;;;;;;6.05;3.00;;;21.40;73.00;;;;;;5052860;28;20091;-74
2022/05/23 08:33:45;;;;;;;8.75;3.08;;;21.40;74.50;;;;;;5053000;28;20071;-75
2022/05/23 08:36:10;;;;;;;7.85;3.17;;;21.60;74.30;;;;;;5052735;28;20025;-74
2022/05/23 08:38:37;;;;;;;8.43;3.42;;;21.70;74.60;;;;;;5053268;28;20063;-75
2022/05/23 08:41:16;;;;;;;8.88;3.35;;;22.00;73.10;;;;;;5052847;28;20028;-74
2022/05/23 08:44:11;;;;;;;10.63;3.83;;;22.20;71.80;;;;;;5053022;28;20021;-74
2022/05/23 08:46:59;;;;;;;10.90;3.75;;;22.40;71.50;;;;;;5047189;28;20048;-74
2022/05/23 08:49:34;;;;;;;12.48;3.80;;;22.50;71.10;;;;;;5053049;28;20028;-75
2022/05/23 08:52:05;;;;;;;8.60;3.30;;;22.50;70.80;;;;;;5052839;28;20127;-75
2022/05/23 08:54:48;;;;;;;11.73;3.33;;;22.40;71.70;;;;;;5052837;28;20040;-74
2022/05/23 08:57:51;;;;;;;9.02;3.58;;;22.30;71.60;;;;;;5053066;28;20025;-74
2022/05/23 09:00:28;;;;;;;9.10;3.40;;;22.10;72.10;;;;;;5052739;28;20421;-74
2022/05/23 09:03:02;;;;;;;7.15;3.10;;;22.10;72.80;;;;;;5052273;28;20349;-74
2022/05/23 09:05:32;;;;;;;6.55;3.00;;;22.10;72.70;;;;;;5052621;28;20098;-75
2022/05/23 09:08:03;;;;;;;10.65;3.72;;;22.20;72.90;;;;;;5052296;28;20033;-74
2022/05/23 09:11:00;;;;;;;6.50;3.13;;;22.20;73.40;;;;;;5052887;28;20033;-74
2022/05/23 09:13:27;;;;;;;8.48;3.45;;;22.30;73.50;;;;;;5052015;28;20057;-74
2022/05/23 09:15:59;;;;;;;7.20;3.17;;;22.30;74.30;;;;;;5052562;28;20102;-74
2022/05/23 09:18:34;;;;;;;6.13;2.88;;;22.40;74.70;;;;;;5052850;28;20040;-74
2022/05/23 09:21:04;;;;;;;9.90;4.13;;;22.40;75.30;;;;;;5052593;28;20124;-74
2022/05/23 09:23:47;;;;;;;6.85;2.90;;;22.40;72.70;;;;;;5052281;28;20079;-75
2022/05/23 09:26:29;;;;;;;9.05;2.88;;;22.30;73.50;;;;;;5052856;28;20037;-74
2022/05/23 09:28:55;;;;;;;7.77;2.70;;;22.40;72.90;;;;;;5052693;28;20025;-74
2022/05/23 09:31:46;;;;;;;6.75;3.38;;;22.40;72.80;;;;;;5052563;28;20344;-74
2022/05/23 09:34:34;;;;;;;7.72;3.30;;;22.40;72.60;;;;;;5052468;28;20029;-73
2022/05/23 09:37:02;;;;;;;7.75;3.65;;;22.40;72.70;;;;;;5052670;28;20021;-73
2022/05/23 09:39:30;;;;;;;8.63;3.13;;;22.40;73.90;;;;;;5052424;28;20212;-73
2022/05/23 09:47:54;;;;;;;6.28;3.42;;;22.60;75.10;;;;;;5055722;28;20051;-74
2022/05/23 09:50:26;;;;;;;8.18;2.58;;;22.70;73.90;;;;;;5056007;28;20025;-74
2022/05/23 09:52:56;;;;;;;4.88;2.33;;;22.70;73.70;;;;;;5056171;28;20021;-74
2022/05/23 09:55:31;;;;;;;6.10;2.50;;;22.80;75.10;;;;;;5056096;28;20029;-74
2022/05/23 09:58:01;;;;;;;6.00;2.67;;;22.80;73.60;;;;;;5055743;28;20032;-74
2022/05/23 10:00:35;;;;;;;4.82;2.47;;;22.90;72.50;;;;;;5055945;28;20032;-74
2022/05/23 10:03:12;;;;;;;5.03;1.98;;;22.80;71.20;;;;;;5056046;28;20033;-75
2022/05/23 10:05:50;;;;;;;8.07;2.35;;;22.80;71.90;;;;;;5055757;28;20029;-74
2022/05/23 10:08:40;;;;;;;8.52;2.28;;;22.80;72.50;;;;;;5055737;28;20037;-74
2022/05/23 10:11:20;;;;;;;8.85;2.72;;;22.80;73.70;;;;;;5052352;28;20361;-74
2022/05/23 10:13:57;;;;;;;5.88;2.50;;;22.70;72.50;;;;;;5055717;28;20071;-75
2022/05/23 10:16:50;;;;;;;8.38;2.53;;;22.60;73.00;;;;;;5055680;28;20032;-75
2022/05/23 10:19:37;;;;;;;8.40;3.10;;;22.60;72.30;;;;;;5055024;28;20115;-74
2022/05/23 10:22:25;;;;;;;7.95;2.88;;;22.50;72.00;;;;;;5055119;28;20108;-75
2022/05/23 10:25:20;;;;;;;6.75;2.50;;;22.50;73.10;;;;;;5055471;28;20021;-75
2022/05/23 10:27:56;;;;;;;6.47;2.70;;;22.50;73.70;;;;;;5046148;28;20391;-75
2022/05/23 10:30:28;;;;;;;8.68;2.65;;;22.40;72.90;;;;;;5054955;28;20067;-75
2022/05/23 10:32:59;;;;;;;7.63;2.90;;;22.50;73.30;;;;;;5055099;28;20021;-74
2022/05/23 10:35:34;;;;;;;10.77;4.00;;;22.50;72.60;;;;;;5054779;28;20464;-75
2022/05/23 10:44:08;;;;;;;5.55;2.65;;;22.60;72.40;;;;;;5054228;28;20499;-74
2022/05/23 10:46:36;;;;;;;7.70;3.40;;;22.80;72.80;;;;;;5045065;28;20129;-75
2022/05/23 10:49:11;;;;;;;8.30;2.78;;;22.80;71.80;;;;;;5054648;28;20104;-75
2022/05/23 10:51:39;;;;;;;10.50;2.75;;;22.80;72.40;;;;;;5055024;28;20112;-75
2022/05/23 10:54:55;;;;;;;8.70;2.80;;;22.80;73.50;;;;;;5053596;28;20067;-74
2022/05/23 10:58:00;;;;;;;9.52;3.38;;;22.90;74.40;;;;;;5042520;28;20032;-75
2022/05/23 11:00:54;;;;;;;5.53;2.55;;;22.80;73.50;;;;;;5054470;28;20087;-75
2022/05/23 11:03:53;;;;;;;8.32;2.55;;;22.80;73.30;;;;;;5054910;28;20033;-74
2022/05/23 11:06:39;;;;;;;7.65;2.67;;;22.80;73.60;;;;;;5033070;28;20424;-74
2022/05/23 11:09:13;;;;;;;4.57;1.90;;;22.80;74.30;;;;;;5054333;28;20039;-74
2022/05/23 11:12:15;;;;;;;5.22;3.22;;;22.80;74.30;;;;;;5054194;28;20017;-74
2022/05/23 11:14:57;;;;;;;5.70;3.00;;;22.70;73.60;;;;;;5054884;28;20139;-74
2022/05/23 11:17:35;;;;;;;6.90;3.05;;;22.60;73.70;;;;;;5054320;28;20032;-74
2022/05/23 11:20:18;;;;;;;7.05;3.22;;;22.70;74.60;;;;;;5053932;28;20104;-74
2022/05/23 11:22:50;;;;;;;7.63;3.60;;;22.80;74.40;;;;;;5053912;28;20036;-75
2022/05/23 11:25:44;;;;;;;9.73;3.83;;;22.90;76.60;;;;;;5054505;28;20017;-74
2022/05/23 11:34:32;;;;;;;9.93;4.10;;;23.40;76.60;;;;;;5054344;28;20383;-75
2022/05/23 11:37:42;;;;;;;8.32;3.70;;;23.60;73.50;;;;;;5042869;28;20037;-75
2022/05/23 11:40:01;;;;;;;11.63;3.40;;;23.80;72.90;;;;;;5053814;28;20021;-74
2022/05/23 11:42:31;;;;;;;6.80;3.23;;;24.10;73.60;;;;;;5054163;28;20025;-75
2022/05/23 11:44:58;;;;;;;9.68;2.60;;;24.40;74.70;;;;;;5053854;28;20258;-75
2022/05/23 11:47:27;;;;;;;6.47;2.53;;;24.60;72.80;;;;;;5052979;28;20064;-75
2022/05/23 11:50:16;;;;;;;7.15;2.85;;;24.70;68.40;;;;;;5053748;28;20559;-75
2022/05/23 11:52:47;;;;;;;8.35;2.40;;;24.80;68.40;;;;;;5053797;28;20043;-75
2022/05/23 11:55:56;;;;;;;7.85;1.95;;;24.90;68.00;;;;;;5053689;28;20460;-75
2022/05/23 11:58:36;;;;;;;5.03;1.80;;;25.00;69.20;;;;;;5049487;28;20124;-75
2022/05/23 12:01:10;;;;;;;7.25;1.98;;;25.20;67.80;;;;;;5053348;28;20472;-75
2022/05/23 12:03:51;;;;;;;3.72;1.75;;;25.50;68.40;;;;;;5053197;28;20021;-75
2022/05/23 12:06:35;;;;;;;7.13;1.30;;;25.60;65.50;;;;;;5052512;28;20554;-75
2022/05/23 12:09:06;;;;;;;5.45;1.73;;;25.50;65.70;;;;;;5053355;28;20021;-75
2022/05/23 12:11:41;;;;;;;4.93;1.70;;;25.60;66.60;;;;;;5053510;28;20029;-75
2022/05/23 12:14:32;;;;;;;5.95;1.30;;;25.70;64.50;;;;;;5053455;28;20028;-75
2022/05/23 12:16:58;;;;;;;3.80;1.35;;;25.80;65.90;;;;;;5053444;28;20147;-75
2022/05/23 12:19:39;;;;;;;5.47;1.48;;;25.90;66.20;;;;;;5053155;28;20100;-75
2022/05/23 12:22:23;;;;;;;7.63;1.50;;;26.00;66.10;;;;;;5053254;28;20025;-75
2022/05/23 12:24:57;;;;;;;5.50;1.85;;;26.00;65.90;;;;;;5053160;28;20191;-75
2022/05/23 12:27:43;;;;;;;3.13;1.35;;;26.10;64.80;;;;;;5052996;28;20045;-75
2022/05/23 12:30:20;;;;;;;5.70;1.50;;;26.00;66.60;;;;;;5049002;28;20037;-75
2022/05/23 12:32:49;;;;;;;4.97;1.63;;;26.00;68.50;;;;;;5053009;28;20021;-75
2022/05/23 12:35:17;;;;;;;5.68;1.80;;;25.80;67.00;;;;;;5052886;28;20050;-75
2022/05/23 12:38:08;;;;;;;8.43;2.38;;;25.80;65.60;;;;;;5053007;28;20021;-75
2022/05/23 12:40:42;;;;;;;7.15;1.70;;;25.60;65.70;;;;;;5052666;28;20499;-75
2022/05/23 12:43:26;;;;;;;4.85;1.75;;;25.50;66.00;;;;;;5052634;28;20384;-75
2022/05/23 12:46:11;;;;;;;3.92;1.48;;;25.40;66.10;;;;;;5052200;28;20021;-75
2022/05/23 12:48:54;;;;;;;6.50;1.90;;;25.30;65.30;;;;;;5052964;28;20055;-75
2022/05/23 12:51:32;;;;;;;4.25;1.15;;;25.20;66.60;;;;;;5053028;28;20119;-75
2022/05/23 12:54:03;;;;;;;6.70;1.13;;;25.10;66.80;;;;;;5052699;28;20025;-75
2022/05/23 12:56:49;;;;;;;8.32;1.88;;;25.10;67.60;;;;;;5052536;28;20055;-75
2022/05/23 12:59:30;;;;;;;4.97;1.60;;;25.10;67.50;;;;;;5053011;28;20035;-75
2022/05/23 13:02:02;;;;;;;3.28;1.23;;;25.00;66.50;;;;;;5052726;28;20078;-75
2022/05/23 13:04:40;;;;;;;7.07;1.83;;;24.90;66.20;;;;;;5052590;28;20469;-75
2022/05/23 13:07:12;;;;;;;9.60;1.80;;;24.80;66.70;;;;;;5052525;28;20063;-75
2022/05/23 13:09:41;;;;;;;7.78;1.40;;;24.70;66.20;;;;;;5052820;28;20031;-75
2022/05/23 13:12:16;;;;;;;5.85;1.73;;;24.60;67.00;;;;;;5052192;28;20362;-75
2022/05/23 13:14:55;;;;;;;5.90;1.60;;;24.50;66.80;;;;;;5052483;28;20029;-75
2022/05/23 13:17:44;;;;;;;8.07;1.98;;;24.50;68.40;;;;;;5053473;28;20167;-75
2022/05/23 13:23:29;;;;;;;5.43;1.63;;;24.50;67.30;;;;;;5056310;28;20079;-75
2022/05/23 13:25:55;;;;;;;4.15;1.48;;;24.40;67.60;;;;;;5056443;28;20036;-74
2022/05/23 13:28:21;;;;;;;4.30;1.77;;;24.40;68.40;;;;;;5056408;28;20078;-75
2022/05/23 13:30:53;;;;;;;6.28;1.85;;;24.40;68.80;;;;;;5056549;28;20024;-75
2022/05/23 13:33:32;;;;;;;7.22;2.33;;;24.30;69.20;;;;;;5056358;28;20484;-74
2022/05/23 13:36:03;;;;;;;7.45;1.80;;;24.20;68.60;;;;;;5056039;28;20025;-74
2022/05/23 13:38:31;;;;;;;7.37;1.93;;;24.20;69.20;;;;;;5056489;28;20037;-74
2022/05/23 13:41:01;;;;;;;8.45;2.30;;;24.20;70.10;;;;;;5056075;28;20100;-75
2022/05/23 13:43:42;;;;;;;7.20;2.00;;;24.10;70.50;;;;;;5056409;28;20059;-74
2022/05/23 13:46:23;;;;;;;5.40;1.70;;;24.00;71.50;;;;;;5056276;28;20055;-74
2022/05/23 13:49:02;;;;;;;5.53;1.25;;;24.10;72.00;;;;;;5056383;28;20047;-75
2022/05/23 13:51:39;;;;;;;4.72;1.15;;;24.10;72.10;;;;;;5056385;28;20071;-74
2022/05/23 13:54:23;;;;;;;4.13;1.13;;;24.10;71.80;;;;;;5055867;28;20110;-74
2022/05/23 13:56:56;;;;;;;2.67;0.77;;;24.10;70.90;;;;;;5056301;28;20035;-74
2022/05/23 13:59:26;;;;;;;4.35;1.23;;;24.10;71.20;;;;;;5056048;28;20480;-74
2022/05/23 14:02:02;;;;;;;5.13;1.23;;;24.10;72.30;;;;;;5055695;28;20040;-74
2022/05/23 14:04:34;;;;;;;10.00;1.60;;;24.00;71.80;;;;;;5055606;28;20052;-74
2022/05/23 14:07:09;;;;;;;7.18;1.58;;;24.00;72.50;;;;;;5055353;28;20033;-74
2022/05/23 14:09:40;;;;;;;3.50;1.02;;;24.00;72.40;;;;;;5055584;28;20064;-75
2022/05/23 14:12:11;;;;;;;9.50;3.35;;;24.00;73.00;;;;;;5055328;28;20029;-75